Time;durP1;ratioP1;P1;durP2;ratioP2;P2;SDS_P1;SDS_P2;PMS_P1;PMS_P2;Temp;Humidity;BMP_temperature;BMP_pressure;BME280_temperature;BME280_humidity;BME280_pressure;Samples;Min_cycle;Max_cycle;Signal;HPM_P1;HPM_P2
2023/05/01 01:05:22;;;;;;;0.50;0.10;;;13.20;99.90;;;;;;6083104;22;2062103;-82
2023/05/01 01:08:10;;;;;;;0.43;0.20;;;13.10;99.90;;;;;;6121246;23;20451;-83
2023/05/01 01:10:50;;;;;;;0.70;0.17;;;13.10;99.90;;;;;;6121000;23;20420;-82
2023/05/01 01:13:35;;;;;;;0.80;0.20;;;13.10;99.90;;;;;;6121049;23;20451;-81
2023/05/01 01:16:12;;;;;;;1.13;0.20;;;13.10;99.90;;;;;;6122112;23;20467;-82
2023/05/01 01:18:47;;;;;;;0.23;0.10;;;13.10;99.90;;;;;;6120887;23;20379;-81
2023/05/01 01:21:24;;;;;;;0.10;0.10;;;13.10;99.90;;;;;;6121620;23;20396;-82
2023/05/01 01:24:09;;;;;;;0.28;0.10;;;13.10;99.90;;;;;;6096076;23;20447;-83
2023/05/01 01:26:54;;;;;;;0.40;0.10;;;13.10;99.90;;;;;;6119750;23;20418;-82
2023/05/01 01:29:58;;;;;;;0.33;0.20;;;13.10;99.90;;;;;;6122034;23;20710;-83
2023/05/01 01:32:37;;;;;;;0.20;0.10;;;13.10;99.90;;;;;;6120951;23;20438;-83
2023/05/01 01:35:09;;;;;;;0.20;0.10;;;13.10;99.90;;;;;;6121133;23;20388;-83
2023/05/01 01:37:51;;;;;;;1.35;0.13;;;13.10;99.90;;;;;;6122032;23;20686;-82
2023/05/01 01:40:24;;;;;;;1.40;0.10;;;13.10;99.90;;;;;;6120695;23;20454;-85
2023/05/01 01:42:57;;;;;;;0.70;0.10;;;13.10;99.90;;;;;;6122523;23;20761;-85
2023/05/01 01:45:52;;;;;;;0.80;0.20;;;13.10;99.90;;;;;;6121198;23;20399;-82
2023/05/01 01:48:25;;;;;;;0.20;0.10;;;13.00;99.90;;;;;;6121194;23;20391;-83
2023/05/01 01:50:56;;;;;;;0.60;0.10;;;13.00;99.90;;;;;;6122098;23;20710;-84
2023/05/01 01:53:24;;;;;;;1.05;0.10;;;13.00;99.90;;;;;;6120889;23;20396;-81
2023/05/01 01:55:53;;;;;;;0.30;0.10;;;13.00;99.90;;;;;;6121529;23;20410;-81
2023/05/01 01:58:25;;;;;;;1.20;0.20;;;13.00;99.90;;;;;;6120556;23;20438;-82
2023/05/01 02:00:54;;;;;;;1.10;0.10;;;13.00;99.90;;;;;;6121524;23;20376;-82
2023/05/01 02:03:22;;;;;;;0.70;0.20;;;13.00;99.90;;;;;;6120947;23;20386;-82
2023/05/01 02:05:51;;;;;;;0.53;0.10;;;12.90;99.90;;;;;;6126521;23;20453;-82
2023/05/01 02:08:18;;;;;;;0.28;0.10;;;12.90;99.90;;;;;;6125913;23;20398;-81
2023/05/01 02:10:46;;;;;;;0.35;0.10;;;12.90;99.90;;;;;;6126291;23;20409;-82
2023/05/01 02:13:16;;;;;;;0.55;0.10;;;12.90;99.90;;;;;;6151605;23;20749;-81
2023/05/01 02:15:44;;;;;;;0.30;0.20;;;12.80;99.90;;;;;;6126545;23;20382;-81
2023/05/01 02:18:13;;;;;;;0.30;0.10;;;12.80;99.90;;;;;;6125617;23;20374;-81
2023/05/01 02:20:41;;;;;;;0.80;0.13;;;12.80;99.90;;;;;;6127178;23;20433;-81
2023/05/01 02:23:08;;;;;;;0.17;0.13;;;12.80;99.90;;;;;;6125770;23;20382;-81
2023/05/01 02:25:38;;;;;;;0.90;0.20;;;12.70;99.90;;;;;;6152457;23;20401;-82
2023/05/01 02:28:11;;;;;;;0.47;0.10;;;12.70;99.90;;;;;;6151241;23;20404;-81
2023/05/01 02:30:38;;;;;;;0.73;0.10;;;12.70;99.90;;;;;;6151955;23;20425;-83
2023/05/01 02:33:08;;;;;;;0.63;0.15;;;12.70;99.90;;;;;;6126057;23;20382;-81
2023/05/01 02:35:43;;;;;;;0.30;0.20;;;12.70;99.90;;;;;;6126207;23;20433;-82
2023/05/01 02:38:11;;;;;;;0.35;0.10;;;12.60;99.90;;;;;;6125822;23;20381;-81
2023/05/01 02:40:41;;;;;;;0.60;0.20;;;12.70;99.90;;;;;;6126730;23;20374;-81
2023/05/01 02:43:11;;;;;;;0.77;0.20;;;12.60;99.90;;;;;;6125086;23;20708;-80
2023/05/01 02:45:39;;;;;;;0.65;0.20;;;12.60;99.90;;;;;;6126994;23;20378;-79
2023/05/01 02:48:08;;;;;;;0.38;0.20;;;12.60;99.90;;;;;;6125819;23;20378;-79
2023/05/01 02:50:39;;;;;;;1.65;0.20;;;12.60;99.90;;;;;;6127284;23;20681;-80
2023/05/01 02:53:07;;;;;;;0.80;0.10;;;12.50;99.90;;;;;;6125611;23;20389;-80
2023/05/01 02:55:34;;;;;;;1.00;0.10;;;12.50;99.90;;;;;;6126748;23;20425;-79
2023/05/01 02:58:01;;;;;;;0.30;0.10;;;12.50;99.90;;;;;;6126583;23;20385;-80
2023/05/01 03:00:28;;;;;;;0.65;0.10;;;12.50;99.90;;;;;;6151420;23;20379;-79
2023/05/01 03:02:56;;;;;;;0.60;0.10;;;12.50;99.90;;;;;;6152198;23;20425;-80
2023/05/01 03:05:23;;;;;;;0.30;0.10;;;12.50;99.90;;;;;;6126977;23;20843;-79
2023/05/01 03:07:50;;;;;;;1.13;0.20;;;12.40;99.90;;;;;;6126686;23;20379;-79
2023/05/01 03:10:17;;;;;;;0.87;0.20;;;12.50;99.90;;;;;;6125626;23;20396;-80
2023/05/01 03:12:44;;;;;;;0.28;0.10;;;12.40;99.90;;;;;;6126168;23;20382;-82
2023/05/01 03:15:11;;;;;;;0.70;0.10;;;12.40;99.90;;;;;;6124889;23;20390;-80
2023/05/01 03:17:38;;;;;;;0.67;0.20;;;12.40;99.90;;;;;;6126399;23;20370;-79
2023/05/01 03:20:06;;;;;;;0.40;0.20;;;12.40;99.90;;;;;;6128152;23;20429;-80
2023/05/01 03:22:32;;;;;;;0.30;0.20;;;12.50;99.90;;;;;;6127434;23;20449;-79
2023/05/01 03:25:00;;;;;;;0.40;0.15;;;12.40;99.90;;;;;;6127889;23;20404;-81
2023/05/01 03:27:27;;;;;;;0.88;0.17;;;12.40;99.90;;;;;;6127492;23;20453;-80
2023/05/01 03:29:54;;;;;;;1.55;0.20;;;12.40;99.90;;;;;;6128786;23;20402;-79
2023/05/01 03:32:21;;;;;;;1.20;0.20;;;12.30;99.90;;;;;;6128814;23;20374;-80
2023/05/01 03:34:48;;;;;;;0.40;0.10;;;12.30;99.90;;;;;;6129974;23;20473;-80
2023/05/01 03:37:15;;;;;;;0.37;0.13;;;12.30;99.90;;;;;;6153346;23;20370;-80
2023/05/01 03:39:42;;;;;;;1.27;0.20;;;12.30;99.90;;;;;;6128719;23;20374;-80
2023/05/01 03:42:09;;;;;;;1.25;0.20;;;12.40;99.90;;;;;;6128691;23;20380;-80
2023/05/01 03:44:36;;;;;;;1.48;0.30;;;12.30;99.90;;;;;;6129253;23;20834;-79
2023/05/01 03:47:03;;;;;;;0.35;0.20;;;12.30;99.90;;;;;;6131353;23;20374;-80
2023/05/01 03:49:30;;;;;;;0.28;0.10;;;12.30;99.90;;;;;;6130092;23;20756;-81
2023/05/01 03:51:57;;;;;;;0.80;0.10;;;12.30;99.90;;;;;;6130103;23;20401;-80
2023/05/01 03:54:24;;;;;;;0.30;0.20;;;12.40;99.90;;;;;;6128373;23;20378;-80
2023/05/01 03:56:51;;;;;;;0.32;0.20;;;12.40;99.90;;;;;;6128613;23;20378;-80
2023/05/01 03:59:18;;;;;;;0.98;0.30;;;12.40;99.90;;;;;;6128851;23;20402;-80
2023/05/01 04:01:45;;;;;;;1.40;0.10;;;12.40;99.90;;;;;;6128508;23;20393;-80
2023/05/01 04:04:12;;;;;;;0.10;0.10;;;12.40;99.90;;;;;;6154640;23;20696;-79
2023/05/01 04:06:39;;;;;;;0.75;0.20;;;12.40;99.90;;;;;;6153029;23;20394;-79
2023/05/01 04:09:07;;;;;;;0.88;0.30;;;12.40;99.90;;;;;;6154402;23;20380;-79
2023/05/01 04:11:34;;;;;;;1.08;0.10;;;12.40;99.90;;;;;;6128773;23;20374;-80
2023/05/01 04:14:00;;;;;;;0.40;0.20;;;12.40;99.90;;;;;;6129975;23;20708;-80
2023/05/01 04:16:28;;;;;;;1.35;0.20;;;12.40;99.90;;;;;;6127803;23;20410;-81
2023/05/01 04:18:56;;;;;;;0.52;0.20;;;12.40;99.90;;;;;;6156075;23;20756;-81
2023/05/01 04:21:23;;;;;;;0.60;0.20;;;12.50;99.90;;;;;;6130853;23;20382;-79
2023/05/01 04:23:49;;;;;;;0.40;0.30;;;12.40;99.90;;;;;;6128760;23;20843;-81
2023/05/01 04:26:16;;;;;;;0.60;0.20;;;12.40;99.90;;;;;;6127123;23;20449;-80
2023/05/01 04:28:43;;;;;;;0.20;0.13;;;12.40;99.90;;;;;;6128203;23;20373;-80
2023/05/01 04:31:10;;;;;;;0.70;0.20;;;12.50;99.90;;;;;;6127992;23;20745;-81
2023/05/01 04:33:37;;;;;;;0.40;0.30;;;12.50;99.90;;;;;;6126964;23;20462;-80
2023/05/01 04:36:04;;;;;;;0.52;0.20;;;12.40;99.90;;;;;;6128056;23;20449;-81
2023/05/01 04:38:31;;;;;;;0.40;0.20;;;12.40;99.90;;;;;;6126843;23;20429;-80
2023/05/01 04:40:58;;;;;;;0.47;0.20;;;12.40;99.90;;;;;;6129052;23;20761;-80
2023/05/01 04:43:25;;;;;;;0.73;0.20;;;12.50;99.90;;;;;;6128749;23;20382;-82
2023/05/01 04:45:53;;;;;;;0.20;0.20;;;12.50;99.90;;;;;;6154152;23;20414;-81
2023/05/01 04:48:20;;;;;;;0.20;0.20;;;12.50;99.90;;;;;;6127592;23;20378;-81
2023/05/01 04:50:47;;;;;;;0.30;0.20;;;12.50;99.90;;;;;;6127630;23;20372;-79
2023/05/01 04:53:14;;;;;;;0.70;0.20;;;12.50;99.90;;;;;;6128824;23;20707;-82
2023/05/01 04:55:40;;;;;;;0.40;0.20;;;12.50;99.90;;;;;;6154224;23;20370;-81
2023/05/01 04:58:07;;;;;;;0.50;0.20;;;12.60;99.90;;;;;;6128308;23;20393;-80
2023/05/01 05:00:34;;;;;;;1.60;0.40;;;12.50;99.90;;;;;;6126721;23;20759;-81
2023/05/01 05:03:01;;;;;;;0.20;0.20;;;12.60;99.90;;;;;;6128053;23;20452;-81
2023/05/01 05:05:28;;;;;;;0.30;0.20;;;12.50;99.90;;;;;;6122111;23;20388;-81
2023/05/01 05:07:55;;;;;;;0.20;0.20;;;12.50;99.90;;;;;;6125175;23;20396;-80
2023/05/01 05:10:22;;;;;;;0.40;0.30;;;12.50;99.90;;;;;;6124398;23;20771;-81
2023/05/01 05:12:49;;;;;;;1.03;0.40;;;12.50;99.90;;;;;;6126071;23;20830;-80
2023/05/01 05:15:16;;;;;;;0.90;0.20;;;12.50;99.90;;;;;;6122212;23;20379;-81
2023/05/01 05:17:44;;;;;;;0.30;0.20;;;12.50;99.90;;;;;;6121991;23;20360;-81
2023/05/01 05:20:11;;;;;;;0.60;0.20;;;12.50;99.90;;;;;;6124204;23;20772;-80
2023/05/01 05:22:38;;;;;;;0.70;0.45;;;12.50;99.90;;;;;;6121360;23;20380;-80
2023/05/01 05:25:05;;;;;;;0.52;0.22;;;12.50;99.90;;;;;;6122393;23;20398;-80
2023/05/01 05:27:37;;;;;;;0.30;0.20;;;12.50;99.90;;;;;;6121926;23;20403;-81
2023/05/01 05:30:05;;;;;;;0.30;0.28;;;12.50;99.90;;;;;;6122297;23;20396;-81
2023/05/01 05:32:32;;;;;;;1.60;0.30;;;12.50;99.90;;;;;;6120805;23;20375;-80
2023/05/01 05:34:59;;;;;;;0.70;0.30;;;12.50;99.90;;;;;;6121474;23;20722;-79
2023/05/01 05:37:26;;;;;;;0.77;0.30;;;12.50;99.90;;;;;;6120410;23;20383;-80
2023/05/01 05:39:53;;;;;;;0.60;0.20;;;12.40;99.90;;;;;;6121147;23;20395;-79
2023/05/01 05:42:20;;;;;;;0.90;0.20;;;12.40;99.90;;;;;;6121142;23;20455;-79
2023/05/01 05:44:47;;;;;;;0.85;0.20;;;12.30;99.90;;;;;;6120334;23;20439;-78
2023/05/01 05:47:14;;;;;;;1.70;0.22;;;12.30;99.90;;;;;;6120696;23;20411;-79
2023/05/01 05:49:40;;;;;;;0.47;0.20;;;12.30;99.90;;;;;;6121332;23;20687;-80
2023/05/01 05:52:07;;;;;;;0.28;0.10;;;12.30;99.90;;;;;;6121017;23;20372;-78
2023/05/01 05:54:34;;;;;;;0.70;0.25;;;12.30;99.90;;;;;;6123135;23;20379;-80
2023/05/01 05:57:02;;;;;;;0.60;0.30;;;12.30;99.90;;;;;;6126594;23;20384;-79
2023/05/01 05:59:29;;;;;;;1.02;0.30;;;12.30;99.90;;;;;;6126163;23;20391;-82
2023/05/01 06:01:56;;;;;;;0.67;0.37;;;12.30;99.90;;;;;;6127249;23;20378;-80
2023/05/01 06:04:23;;;;;;;1.40;0.50;;;12.30;99.90;;;;;;6125363;23;20392;-80
2023/05/01 06:06:50;;;;;;;0.40;0.40;;;12.30;99.90;;;;;;6124992;23;20455;-79
2023/05/01 06:09:17;;;;;;;0.77;0.30;;;12.30;99.90;;;;;;6123404;23;20447;-79
2023/05/01 06:11:44;;;;;;;1.40;0.20;;;12.20;99.90;;;;;;6122935;23;20709;-80
2023/05/01 06:14:11;;;;;;;0.75;0.32;;;12.20;99.90;;;;;;6123206;23;20379;-79
2023/05/01 06:16:38;;;;;;;1.60;0.40;;;12.20;99.90;;;;;;6119846;23;20379;-80
2023/05/01 06:19:06;;;;;;;2.65;1.30;;;12.20;99.90;;;;;;6123871;23;20734;-80
2023/05/01 06:21:33;;;;;;;2.53;1.30;;;12.20;99.90;;;;;;6122892;23;20376;-79
2023/05/01 06:24:00;;;;;;;2.92;1.00;;;12.20;99.90;;;;;;6120882;23;20383;-79
2023/05/01 06:26:27;;;;;;;1.52;0.73;;;12.30;99.90;;;;;;6118687;23;20376;-79
2023/05/01 06:28:54;;;;;;;2.42;0.95;;;12.20;99.90;;;;;;6115121;23;20403;-79
2023/05/01 06:31:21;;;;;;;1.70;0.80;;;12.20;99.90;;;;;;6119899;23;20762;-79
2023/05/01 06:33:48;;;;;;;1.48;0.75;;;12.20;99.90;;;;;;6120979;23;20693;-78
2023/05/01 06:36:14;;;;;;;1.20;0.40;;;12.20;99.90;;;;;;6124225;23;20391;-79
2023/05/01 06:38:47;;;;;;;0.40;0.30;;;12.20;99.90;;;;;;6120027;23;20468;-79
2023/05/01 06:41:15;;;;;;;1.75;0.60;;;12.20;99.90;;;;;;6120611;23;20372;-78
2023/05/01 06:43:42;;;;;;;2.03;0.60;;;12.20;99.90;;;;;;6121188;23;20402;-79
2023/05/01 06:46:09;;;;;;;2.08;0.60;;;12.20;99.90;;;;;;6121510;23;20395;-79
2023/05/01 06:48:36;;;;;;;1.27;0.60;;;12.20;99.90;;;;;;6121058;23;20386;-79
2023/05/01 06:51:03;;;;;;;1.13;0.50;;;12.20;99.90;;;;;;6122778;23;20439;-79
2023/05/01 06:53:29;;;;;;;1.40;0.50;;;12.20;99.90;;;;;;6124194;23;20379;-77
2023/05/01 06:55:56;;;;;;;2.30;0.60;;;12.20;99.90;;;;;;6125082;23;20412;-78
2023/05/01 06:58:23;;;;;;;1.35;0.60;;;12.20;99.90;;;;;;6123264;23;20442;-79
2023/05/01 07:00:52;;;;;;;2.00;0.60;;;12.20;99.90;;;;;;6131872;23;20384;-79
2023/05/01 07:03:19;;;;;;;1.60;0.63;;;12.20;99.90;;;;;;6134078;23;20383;-78
2023/05/01 07:05:46;;;;;;;0.82;0.50;;;12.30;99.90;;;;;;6135083;23;20380;-79
2023/05/01 07:08:13;;;;;;;1.03;0.50;;;12.30;99.90;;;;;;6132645;23;20417;-79
2023/05/01 07:10:40;;;;;;;1.10;0.50;;;12.30;99.90;;;;;;6134921;23;20690;-79
2023/05/01 07:13:08;;;;;;;3.60;0.70;;;12.20;99.90;;;;;;6123617;23;20403;-79
2023/05/01 07:15:35;;;;;;;1.08;0.63;;;12.20;99.90;;;;;;6122281;23;20431;-78
2023/05/01 07:18:04;;;;;;;2.17;0.65;;;12.20;99.90;;;;;;6123441;23;20378;-78
2023/05/01 07:20:33;;;;;;;1.40;0.68;;;12.20;99.90;;;;;;6128672;23;20742;-80
2023/05/01 07:23:00;;;;;;;1.15;0.70;;;12.20;99.90;;;;;;6128438;23;20419;-79
2023/05/01 07:25:27;;;;;;;1.63;0.52;;;12.20;99.90;;;;;;6126035;23;20772;-79
2023/05/01 07:27:54;;;;;;;2.05;0.60;;;12.30;99.90;;;;;;6125774;23;20455;-79
2023/05/01 07:30:21;;;;;;;1.35;0.75;;;12.30;99.90;;;;;;6131847;23;20679;-79
2023/05/01 07:32:48;;;;;;;2.08;0.80;;;12.30;99.90;;;;;;6129361;23;20372;-79
2023/05/01 07:35:15;;;;;;;2.20;1.10;;;12.20;99.90;;;;;;6130247;23;20372;-80
2023/05/01 07:37:42;;;;;;;2.63;1.00;;;12.20;99.90;;;;;;6127438;23;20380;-79
2023/05/01 07:40:09;;;;;;;2.30;1.10;;;12.20;99.90;;;;;;6127949;23;20376;-79
2023/05/01 07:42:36;;;;;;;1.52;0.70;;;12.10;99.90;;;;;;6129227;23;20702;-79
2023/05/01 07:45:04;;;;;;;0.90;0.70;;;12.10;99.90;;;;;;6125513;23;20403;-79
2023/05/01 07:47:30;;;;;;;1.52;1.40;;;12.10;99.90;;;;;;6129632;23;20691;-79
2023/05/01 07:49:58;;;;;;;2.08;0.90;;;12.10;99.90;;;;;;6124810;23;20380;-79
2023/05/01 07:52:25;;;;;;;2.00;0.75;;;12.10;99.90;;;;;;6130361;23;20380;-80
2023/05/01 07:54:52;;;;;;;1.50;0.40;;;12.10;99.90;;;;;;6126126;23;20380;-81
2023/05/01 07:57:19;;;;;;;2.55;0.60;;;12.10;99.90;;;;;;6127136;23;20431;-79
2023/05/01 07:59:45;;;;;;;1.02;0.60;;;12.10;99.90;;;;;;6125092;23;20395;-80
2023/05/01 08:02:12;;;;;;;0.73;0.40;;;12.00;99.90;;;;;;6126160;23;20368;-79
2023/05/01 08:04:40;;;;;;;2.15;0.95;;;12.10;99.90;;;;;;6147192;23;20385;-79
2023/05/01 08:07:07;;;;;;;2.47;1.20;;;12.00;99.90;;;;;;6134947;23;20370;-78
2023/05/01 08:09:34;;;;;;;0.75;0.50;;;12.10;99.90;;;;;;6159812;23;20382;-79
2023/05/01 08:12:02;;;;;;;0.80;0.40;;;12.00;99.90;;;;;;6137101;23;20378;-79
2023/05/01 08:14:29;;;;;;;0.80;0.50;;;12.10;99.90;;;;;;6136067;23;20512;-80
2023/05/01 08:16:56;;;;;;;1.17;0.60;;;12.10;99.90;;;;;;6137124;23;20724;-79
2023/05/01 08:19:23;;;;;;;0.85;0.45;;;12.10;99.90;;;;;;6138540;23;20371;-78
2023/05/01 08:21:50;;;;;;;0.98;0.47;;;12.10;99.90;;;;;;6137544;23;20371;-79
2023/05/01 08:24:17;;;;;;;0.57;0.50;;;12.10;99.90;;;;;;6139458;23;20360;-79
2023/05/01 08:26:44;;;;;;;1.80;0.60;;;12.10;99.90;;;;;;6138245;23;20374;-79
2023/05/01 08:29:11;;;;;;;0.60;0.40;;;12.10;99.90;;;;;;6138952;23;20377;-82
2023/05/01 08:31:39;;;;;;;0.82;0.38;;;12.10;99.90;;;;;;6137847;23;20405;-79
2023/05/01 08:34:06;;;;;;;1.00;0.40;;;12.00;99.90;;;;;;6141548;23;20424;-79
2023/05/01 08:36:33;;;;;;;0.93;0.55;;;12.00;99.90;;;;;;6138319;23;20724;-78
2023/05/01 08:39:00;;;;;;;0.60;0.43;;;12.00;99.90;;;;;;6140224;23;20429;-79
2023/05/01 08:41:28;;;;;;;0.90;0.50;;;12.00;99.90;;;;;;6141491;23;20366;-78
2023/05/01 08:44:00;;;;;;;1.77;0.60;;;12.00;99.90;;;;;;6140744;23;20744;-82
2023/05/01 08:46:33;;;;;;;1.05;0.65;;;11.90;99.90;;;;;;6142699;23;20409;-80
2023/05/01 08:49:04;;;;;;;2.25;0.70;;;12.00;99.90;;;;;;6138222;23;20390;-79
2023/05/01 08:51:33;;;;;;;1.45;0.50;;;11.90;99.90;;;;;;6135685;23;20455;-79
2023/05/01 08:54:02;;;;;;;1.40;0.50;;;11.90;99.90;;;;;;6135879;23;20382;-79
2023/05/01 08:56:30;;;;;;;1.00;0.70;;;11.90;99.90;;;;;;6138960;23;20393;-79
2023/05/01 08:59:00;;;;;;;1.85;0.80;;;11.90;99.90;;;;;;6131772;23;20377;-79
2023/05/01 09:01:28;;;;;;;1.75;0.50;;;11.90;99.90;;;;;;6129918;23;20433;-80
2023/05/01 09:03:57;;;;;;;1.40;0.50;;;12.00;99.90;;;;;;6127571;23;20379;-80
2023/05/01 09:06:27;;;;;;;1.90;0.52;;;12.00;99.90;;;;;;6104763;23;20383;-79
2023/05/01 09:08:54;;;;;;;1.17;0.50;;;11.90;99.90;;;;;;6128031;23;20376;-78
2023/05/01 09:11:25;;;;;;;1.70;0.80;;;12.00;99.90;;;;;;6131635;23;20359;-80
2023/05/01 09:13:52;;;;;;;2.58;1.00;;;12.00;99.90;;;;;;6136934;23;20407;-78
2023/05/01 09:16:20;;;;;;;1.33;0.60;;;11.90;99.90;;;;;;6128496;23;20396;-79
2023/05/01 09:18:47;;;;;;;1.95;0.50;;;11.90;99.90;;;;;;6128351;23;20423;-79
2023/05/01 09:21:14;;;;;;;1.55;0.80;;;11.90;99.90;;;;;;6130040;23;20380;-80
2023/05/01 09:23:41;;;;;;;1.90;1.03;;;11.90;99.90;;;;;;6129962;23;20378;-80
2023/05/01 09:26:08;;;;;;;1.85;1.10;;;11.90;99.90;;;;;;6129707;23;20747;-79
2023/05/01 09:28:43;;;;;;;1.50;0.80;;;11.90;99.90;;;;;;6131338;23;20368;-79
2023/05/01 09:31:27;;;;;;;2.17;0.68;;;11.90;99.90;;;;;;6135588;23;20380;-79
2023/05/01 09:34:00;;;;;;;1.35;0.60;;;11.90;99.90;;;;;;6129192;23;20481;-80
2023/05/01 09:36:29;;;;;;;1.23;0.70;;;11.90;99.90;;;;;;6136237;23;20363;-80
2023/05/01 09:38:59;;;;;;;1.65;0.55;;;11.90;99.90;;;;;;6131225;23;20379;-79
2023/05/01 09:41:26;;;;;;;1.33;0.50;;;11.90;99.90;;;;;;6130920;23;20378;-79
2023/05/01 09:43:55;;;;;;;0.90;0.50;;;11.90;99.90;;;;;;6132590;23;20387;-80
2023/05/01 09:46:23;;;;;;;2.22;1.13;;;11.90;99.90;;;;;;6132224;23;20417;-79
2023/05/01 09:48:57;;;;;;;1.90;0.80;;;11.90;99.90;;;;;;6132137;23;20372;-80
2023/05/01 09:51:29;;;;;;;1.67;0.82;;;12.00;99.90;;;;;;6131617;23;20371;-79
2023/05/01 09:54:04;;;;;;;2.03;0.80;;;12.00;99.90;;;;;;6126640;23;20379;-80
2023/05/01 09:56:32;;;;;;;1.67;0.80;;;12.00;99.90;;;;;;6129753;23;20376;-80
2023/05/01 09:59:20;;;;;;;1.45;0.70;;;12.00;99.90;;;;;;6134410;23;20461;-80
2023/05/01 10:01:48;;;;;;;1.10;0.63;;;12.00;99.90;;;;;;6125729;23;20359;-80
2023/05/01 10:04:16;;;;;;;0.60;0.50;;;12.00;99.90;;;;;;6138908;23;20779;-79
2023/05/01 10:06:43;;;;;;;1.10;0.90;;;12.00;99.90;;;;;;6127892;23;20371;-79
2023/05/01 10:09:15;;;;;;;1.52;1.17;;;12.10;99.90;;;;;;6132828;23;20367;-81
2023/05/01 10:11:52;;;;;;;1.88;1.52;;;12.10;99.90;;;;;;6135368;23;20364;-80
2023/05/01 10:14:20;;;;;;;1.83;1.30;;;12.20;99.90;;;;;;6131405;23;20372;-79
2023/05/01 10:16:48;;;;;;;1.92;1.02;;;12.20;99.90;;;;;;6128653;23;20714;-82
2023/05/01 10:19:19;;;;;;;1.50;0.85;;;12.20;99.90;;;;;;6126046;23;20368;-80
2023/05/01 10:21:46;;;;;;;1.13;0.70;;;12.30;99.90;;;;;;6129546;23;20376;-79
2023/05/01 10:24:15;;;;;;;1.98;0.82;;;12.40;99.90;;;;;;6132728;23;20903;-80
2023/05/01 10:26:42;;;;;;;1.60;1.20;;;12.40;99.90;;;;;;6130442;23;20403;-80
2023/05/01 10:29:11;;;;;;;1.92;1.17;;;12.50;99.90;;;;;;6131748;23;20376;-80
2023/05/01 10:31:38;;;;;;;1.90;1.08;;;12.50;99.90;;;;;;6131875;23;20380;-80
2023/05/01 10:34:10;;;;;;;1.40;0.90;;;12.60;99.90;;;;;;6135637;23;20376;-80
2023/05/01 10:36:48;;;;;;;4.43;1.13;;;12.60;99.90;;;;;;6132981;23;20483;-80
2023/05/01 10:39:35;;;;;;;1.38;0.80;;;12.70;99.90;;;;;;6133938;23;20783;-79
2023/05/01 10:42:16;;;;;;;1.20;0.98;;;12.70;99.90;;;;;;6132454;23;20370;-80
2023/05/01 10:44:45;;;;;;;1.70;1.00;;;12.70;99.90;;;;;;6138334;23;20375;-80
2023/05/01 10:47:27;;;;;;;2.15;1.27;;;12.80;99.90;;;;;;6134361;23;20380;-81
2023/05/01 10:50:08;;;;;;;1.27;0.93;;;12.80;99.90;;;;;;6127490;23;20386;-78
2023/05/01 10:53:11;;;;;;;1.40;1.08;;;12.90;99.90;;;;;;6128098;23;20389;-80
2023/05/01 10:55:41;;;;;;;1.52;1.20;;;13.00;99.90;;;;;;6109956;23;20431;-79
2023/05/01 10:58:09;;;;;;;2.33;1.47;;;13.00;99.90;;;;;;6126786;23;20379;-79
2023/05/01 11:00:36;;;;;;;2.17;1.50;;;13.10;99.90;;;;;;6128756;23;20434;-80
2023/05/01 11:03:21;;;;;;;1.35;1.05;;;13.20;99.90;;;;;;6126141;23;20434;-81
2023/05/01 11:06:03;;;;;;;1.60;0.90;;;13.20;99.90;;;;;;6127013;23;20410;-79
2023/05/01 11:08:32;;;;;;;1.10;0.80;;;13.20;99.90;;;;;;6124427;23;20384;-79
2023/05/01 11:11:25;;;;;;;1.98;1.15;;;13.30;99.90;;;;;;6124046;23;20430;-79
2023/05/01 11:14:09;;;;;;;2.88;1.40;;;13.30;99.90;;;;;;6090322;23;20374;-79
2023/05/01 11:16:36;;;;;;;3.05;1.27;;;13.30;99.90;;;;;;6122972;23;20900;-81
2023/05/01 11:19:22;;;;;;;2.88;1.60;;;13.20;99.90;;;;;;6121155;23;20714;-80
2023/05/01 11:21:49;;;;;;;4.35;2.25;;;13.20;99.90;;;;;;6123392;23;20384;-80
2023/05/01 11:24:17;;;;;;;3.60;1.70;;;13.20;99.90;;;;;;6122810;23;20446;-80
2023/05/01 11:26:45;;;;;;;3.85;1.75;;;13.20;99.90;;;;;;6123039;23;20462;-79
2023/05/01 11:29:12;;;;;;;3.85;1.30;;;13.20;99.90;;;;;;6124163;23;20383;-80
2023/05/01 11:31:40;;;;;;;1.70;0.80;;;13.10;99.90;;;;;;6126071;23;20438;-79
2023/05/01 11:34:07;;;;;;;1.90;0.83;;;13.00;99.90;;;;;;6126203;23;20706;-80
2023/05/01 11:36:48;;;;;;;1.50;0.70;;;13.00;99.90;;;;;;6126738;23;20438;-80
2023/05/01 11:39:16;;;;;;;1.13;0.70;;;12.90;99.90;;;;;;6128018;23;20364;-78
2023/05/01 11:41:44;;;;;;;2.93;1.00;;;12.90;99.90;;;;;;6122890;23;20672;-79
2023/05/01 11:44:12;;;;;;;1.33;0.90;;;12.80;99.90;;;;;;6121845;23;20465;-79
2023/05/01 11:46:39;;;;;;;0.95;0.50;;;12.80;99.90;;;;;;6122718;23;20768;-79
2023/05/01 11:49:07;;;;;;;1.30;0.65;;;12.80;99.90;;;;;;6122173;23;20454;-79
2023/05/01 11:51:34;;;;;;;1.52;0.50;;;12.80;99.90;;;;;;6131327;23;20395;-79
2023/05/01 11:54:09;;;;;;;1.35;0.75;;;12.70;99.90;;;;;;6129983;23;20395;-80
2023/05/01 11:56:37;;;;;;;2.37;0.80;;;12.70;99.90;;;;;;6126517;23;20840;-80
2023/05/01 11:59:12;;;;;;;2.92;1.00;;;12.70;99.90;;;;;;6126727;23;20383;-80
2023/05/01 12:01:40;;;;;;;2.33;1.00;;;12.60;99.90;;;;;;6123454;23;20388;-80
2023/05/01 12:04:07;;;;;;;2.20;1.00;;;12.60;99.90;;;;;;6123659;23;20376;-79
2023/05/01 12:06:45;;;;;;;1.20;0.70;;;12.60;99.90;;;;;;6121558;23;20753;-79
2023/05/01 12:09:23;;;;;;;1.85;0.95;;;12.60;99.90;;;;;;6127162;23;20386;-80
2023/05/01 12:11:52;;;;;;;1.60;0.85;;;12.60;99.90;;;;;;6128445;23;20419;-80
2023/05/01 12:14:23;;;;;;;1.70;0.55;;;12.60;99.90;;;;;;6133420;23;20371;-81
2023/05/01 12:16:50;;;;;;;1.30;0.63;;;12.60;99.90;;;;;;6131592;23;20691;-80
2023/05/01 12:19:18;;;;;;;0.90;0.40;;;12.50;99.90;;;;;;6134042;23;20757;-80
2023/05/01 12:21:47;;;;;;;1.00;0.40;;;12.50;99.90;;;;;;6127048;23;20372;-79
2023/05/01 12:24:16;;;;;;;1.08;0.35;;;12.40;99.90;;;;;;6127454;23;20382;-79
2023/05/01 12:26:45;;;;;;;0.63;0.50;;;12.30;99.90;;;;;;6124011;23;20482;-80
2023/05/01 12:29:12;;;;;;;0.45;0.30;;;12.30;99.90;;;;;;6127414;23;20784;-80
2023/05/01 12:31:47;;;;;;;0.68;0.20;;;12.30;99.90;;;;;;6122375;23;20403;-80
2023/05/01 12:34:14;;;;;;;1.23;0.30;;;12.20;99.90;;;;;;6128401;23;20372;-80
2023/05/01 12:36:52;;;;;;;0.50;0.40;;;12.20;99.90;;;;;;6127434;23;20747;-80
2023/05/01 12:39:19;;;;;;;1.10;0.30;;;12.20;99.90;;;;;;6126161;23;20388;-80
2023/05/01 12:41:48;;;;;;;0.57;0.22;;;12.20;99.90;;;;;;6126339;23;20408;-80
2023/05/01 12:44:21;;;;;;;0.55;0.20;;;12.10;99.90;;;;;;6127584;23;20398;-81
2023/05/01 12:47:03;;;;;;;0.97;0.47;;;12.10;99.90;;;;;;6126401;23;20384;-80
2023/05/01 12:49:31;;;;;;;0.40;0.20;;;12.10;99.90;;;;;;6122892;23;20439;-80
2023/05/01 12:52:02;;;;;;;0.40;0.30;;;12.10;99.90;;;;;;6122902;23;20375;-80
2023/05/01 12:54:36;;;;;;;0.70;0.20;;;12.10;99.90;;;;;;6123794;23;20376;-79
2023/05/01 12:57:13;;;;;;;1.27;0.47;;;12.20;99.90;;;;;;6109841;23;20694;-80
2023/05/01 12:59:42;;;;;;;0.52;0.30;;;12.20;99.90;;;;;;6121699;23;20384;-81
2023/05/01 13:02:14;;;;;;;0.70;0.30;;;12.20;99.90;;;;;;6121464;23;20398;-79
2023/05/01 13:04:47;;;;;;;0.65;0.30;;;12.20;99.90;;;;;;6119734;23;20438;-81
2023/05/01 13:07:16;;;;;;;1.60;0.40;;;12.20;99.90;;;;;;6122081;23;20382;-79
2023/05/01 13:09:55;;;;;;;2.20;0.28;;;12.20;99.90;;;;;;6121920;23;20404;-80
2023/05/01 13:12:23;;;;;;;0.70;0.20;;;12.20;99.90;;;;;;6123884;23;20742;-80
2023/05/01 13:14:50;;;;;;;0.50;0.20;;;12.10;99.90;;;;;;6115306;23;20982;-80
2023/05/01 13:17:29;;;;;;;0.80;0.20;;;12.10;99.90;;;;;;6122767;23;20379;-80
2023/05/01 13:20:06;;;;;;;0.50;0.20;;;12.10;99.90;;;;;;6120649;23;20376;-79
2023/05/01 13:22:37;;;;;;;1.30;0.30;;;12.10;99.90;;;;;;6122049;23;20371;-80
2023/05/01 13:25:11;;;;;;;1.35;0.30;;;12.10;99.90;;;;;;6120808;23;20427;-80
2023/05/01 13:27:40;;;;;;;0.52;0.30;;;12.10;99.90;;;;;;6123132;23;20392;-80
2023/05/01 13:30:08;;;;;;;0.75;0.20;;;12.10;99.90;;;;;;6121669;23;20423;-80
2023/05/01 13:32:39;;;;;;;0.75;0.25;;;12.10;99.90;;;;;;6122524;23;20383;-79
2023/05/01 13:35:10;;;;;;;0.70;0.30;;;12.10;99.90;;;;;;6123425;23;20702;-80
2023/05/01 13:37:39;;;;;;;1.30;0.20;;;12.00;99.90;;;;;;6126417;23;20499;-80
2023/05/01 13:40:06;;;;;;;0.57;0.30;;;12.00;99.90;;;;;;6122261;23;20391;-80
2023/05/01 13:42:35;;;;;;;0.77;0.20;;;12.00;99.90;;;;;;6123369;23;20407;-80
2023/05/01 13:45:05;;;;;;;0.43;0.20;;;12.00;99.90;;;;;;6125579;23;20442;-79
2023/05/01 13:47:32;;;;;;;0.20;0.20;;;12.00;99.90;;;;;;6120993;23;20376;-79
2023/05/01 13:49:58;;;;;;;0.40;0.20;;;12.00;99.90;;;;;;6121123;23;20376;-80
2023/05/01 13:52:26;;;;;;;0.50;0.20;;;12.00;99.90;;;;;;6122376;23;20385;-80
2023/05/01 13:54:55;;;;;;;0.70;0.20;;;12.00;99.90;;;;;;6121575;23;20396;-82
2023/05/01 13:57:22;;;;;;;0.77;0.30;;;11.90;99.90;;;;;;6122357;23;20372;-80
2023/05/01 13:59:49;;;;;;;0.90;0.20;;;12.00;99.90;;;;;;6120398;23;20395;-80
2023/05/01 14:02:27;;;;;;;0.90;0.20;;;11.90;99.90;;;;;;6123065;23;20423;-80
2023/05/01 14:04:54;;;;;;;1.10;0.30;;;12.00;99.90;;;;;;6121069;23;20384;-80